KEST

Details ICAO KEST
Name ESTHERVILLE MUNI
Region United States
Timezone America/Chicago (UTC-6.0)
Plans Departing 2
Arriving 1
Stats Elevation 1,319 ft / 402 m (AMSL)
Location 43.407108° -94.746490°
Runways 2
Magnetic Variation 1.538° E
Sunrise 2017-12-11 13:43:15 UTC / 2017-12-11 07:43:15 Local
Sunset 2017-12-11 22:44:23 UTC / 2017-12-11 16:44:23 Local
Advertisement - Login to hide

Runways

ID Width Length Bearing (true) Bearing (mag) Surface Threshold Offset Overrun Length
06 90 ft / 27 m 2,978 ft / 908 m 72.77° 71.23° Dirt 0 ft / 0 m 0 ft / 0 m
16 75 ft / 23 m 4,801 ft / 1,463 m 169.63° 168.09° Concrete 0 ft / 0 m 0 ft / 0 m
24 90 ft / 27 m 2,978 ft / 908 m 252.77° 251.23° Dirt 0 ft / 0 m 0 ft / 0 m
34 75 ft / 23 m 4,801 ft / 1,463 m 349.63° 348.09° Concrete 0 ft / 0 m 0 ft / 0 m

Map

Weather


0- 5 10 15 20 25 30 35+ Temperature / ° C

Clouds and Precipitation
Forecast for 2017-12-12 06:00 UTC. Updated 2 hours ago

Ground ~20,000 ft ~40,000 ft Winds

METAR

KEST 120252Z AUTO 34020G28KT 10SM CLR M09/M11 A3024 RMK AO2 PK WND 34031/0225 SLP259 T10891111 51037

TAF

Not found

Frequencies

Recorded 121.42 MHz ASOS
Unicom 122.80 MHz CTAF/UNICOM
Warning: Do not use this data for real-world aviation or navigation. No guarantee of current accuracy is given.